Hlavní strana
METAR-TAF:

METAR-TAF

Letiště :

Örebro, Švédsko

zeměpisná šířka: 59-14N, zeměpisná délka: 015-03E, výška: 57 m

Aktuální stav počasí

Zpráva byla vytvořena před 43 minutami, v 03:20 UTC
Východoseverovýchodní vítr 7 kt
Teplota 6°C
Vlhkost vzduchu 93%
Tlak 1018 hPa
Viditelnost: 2800 m
Zataženo ve výšce 300 ft
kouřmo

METAR: ESOE 180320Z 06007KT 2800 BR OVC003 06/05 Q1018

Čas: 05:03 (04:03 UTC)

Předpověď počasí

Zpráva byla vytvořena před 31 minutami, v 03:32 UTC
Předpověď platná od 18 v 03 UTC do 18 v 12 UTC
Východoseverovýchodní vítr 6 kt
Viditelnost: 8000 m
Zataženo ve výšce 600 ft
Dočasný
od 18 v 03 UTC do 18 v 12 UTC
Viditelnost: 2000 m
Oblačno až skoro zataženo ve výšce 300 ft
kouřmo

TAF: ESOE 180332Z 1803/1812 07006KT 8000 OVC006 TEMPO 1803/1812 2000 BR BKN003

Stav a předpovědi počasí z více než 4 000 letišť (zprávy METAR a TAF).

Červené a žluté tečky na mapě představují dostupné meteorologické stanice.

Když kurzor umístíte na tečku, zobrazí se název stanice.

Pak kliknutím zobrazíte stav a předpověď počasí.

Chcete-li změnit mapu, kliknutím na zelené tlačítko se znaménkem +mapu přiblížíte, kliknutím na zelené tlačítko se znaménkem – mapu oddálíte a kliknutím na zelené šipky přejdete na sousední mapy.


METAR-TAF: